Seleccionar fecha


viernes, 9 noviembre, 2018

Fecha Temperaturas Humedad relativa Presión atmosférica Precipitaciones Dirección viento Velocidad del viento Velocidad de racha Iluminancia
11:58 PM10,1 ºC100 %965 hPa0,00 l/m2 0º N 0,0 km/h0,0 km/h2.1 Lux
11:53 PM10,2 ºC100 %966 hPa0,00 l/m2 0º N 0,0 km/h0,0 km/h2.2 Lux
11:48 PM10,2 ºC100 %966 hPa0,00 l/m2 337,5º NNO 0,0 km/h0,3 km/h2.3 Lux
11:42 PM10,2 ºC100 %966 hPa0,00 l/m2 0º N 0,0 km/h0,3 km/h2.2 Lux
11:37 PM10,2 ºC100 %966 hPa0,00 l/m2 337,5º NNO 0,3 km/h2,6 km/h2.4 Lux
11:32 PM10,2 ºC100 %966 hPa0,00 l/m2 0º N 0,8 km/h4,6 km/h2.1 Lux
11:27 PM10,2 ºC100 %966 hPa0,00 l/m2 337,5º NNO 0,3 km/h3,2 km/h2.3 Lux
11:22 PM10,2 ºC100 %966 hPa0,00 l/m2 0º N 0,0 km/h0,0 km/h2.1 Lux
11:17 PM10,2 ºC100 %965 hPa0,00 l/m2 45º NE 0,0 km/h0,0 km/h2.3 Lux
11:12 PM10,2 ºC100 %966 hPa0,00 l/m2 0º N 0,0 km/h0,0 km/h2.2 Lux
11:07 PM10,3 ºC100 %966 hPa0,00 l/m2 0º N 0,0 km/h0,0 km/h2.1 Lux
11:02 PM10,2 ºC100 %966 hPa0,00 l/m2 0º N 0,0 km/h0,3 km/h2.2 Lux
10:57 PM10,2 ºC100 %966 hPa0,00 l/m2 45º NE 0,0 km/h0,0 km/h2.4 Lux
10:52 PM10,2 ºC100 %966 hPa0,00 l/m2 45º NE 0,0 km/h0,0 km/h2.3 Lux
10:47 PM10,1 ºC100 %966 hPa0,00 l/m2 45º NE 0,0 km/h0,0 km/h2.2 Lux
10:42 PM10,0 ºC100 %966 hPa0,00 l/m2 0º N 0,0 km/h0,0 km/h2.1 Lux
10:37 PM10,0 ºC100 %966 hPa0,00 l/m2 0º N 0,0 km/h0,0 km/h2.4 Lux
10:32 PM10,1 ºC100 %966 hPa0,00 l/m2 0º N 0,0 km/h0,0 km/h2.3 Lux
10:27 PM10,2 ºC100 %966 hPa0,00 l/m2 0º N 0,0 km/h0,0 km/h2.2 Lux
10:22 PM10,2 ºC100 %966 hPa0,00 l/m2 45º NE 0,0 km/h0,0 km/h2.3 Lux
10:17 PM10,1 ºC100 %966 hPa0,00 l/m2 0º N 0,0 km/h0,0 km/h2.2 Lux
10:12 PM10,0 ºC100 %966 hPa0,00 l/m2 0º N 0,0 km/h0,0 km/h2.3 Lux
10:07 PM10,0 ºC100 %966 hPa0,00 l/m2 0º N 0,0 km/h0,0 km/h2.3 Lux
10:02 PM10,0 ºC100 %966 hPa0,00 l/m2 0º N 0,0 km/h0,0 km/h2.3 Lux
09:57 PM10,1 ºC100 %966 hPa0,00 l/m2 0º N 0,0 km/h0,0 km/h2.3 Lux
09:52 PM10,2 ºC100 %966 hPa0,00 l/m2 0º N 0,0 km/h0,0 km/h2.1 Lux
09:47 PM10,3 ºC100 %966 hPa0,00 l/m2 0º N 0,0 km/h0,0 km/h2.4 Lux
09:42 PM10,4 ºC100 %966 hPa0,00 l/m2 0º N 0,0 km/h0,0 km/h2.2 Lux
09:37 PM10,4 ºC100 %966 hPa0,00 l/m2 0º N 0,0 km/h0,0 km/h2.3 Lux
09:32 PM10,5 ºC100 %966 hPa0,00 l/m2 0º N 0,0 km/h0,0 km/h2.3 Lux
09:27 PM10,4 ºC100 %966 hPa0,00 l/m2 45º NE 0,0 km/h0,0 km/h2.3 Lux
09:22 PM10,3 ºC100 %966 hPa0,00 l/m2 45º NE 0,0 km/h0,0 km/h2.3 Lux
09:17 PM10,1 ºC100 %966 hPa0,00 l/m2 45º NE 0,0 km/h0,0 km/h2.4 Lux
09:12 PM10,0 ºC100 %966 hPa0,00 l/m2 0º N 0,0 km/h0,0 km/h2.3 Lux
09:07 PM10,0 ºC100 %965 hPa0,00 l/m2 0º N 0,0 km/h0,0 km/h2.1 Lux
09:02 PM10,1 ºC100 %965 hPa0,00 l/m2 0º N 0,0 km/h0,0 km/h2.3 Lux
08:57 PM10,2 ºC100 %965 hPa0,00 l/m2 0º N 0,0 km/h0,0 km/h2.2 Lux
08:52 PM10,3 ºC100 %965 hPa0,00 l/m2 0º N 0,0 km/h0,0 km/h2.3 Lux
08:47 PM10,3 ºC100 %965 hPa0,00 l/m2 0º N 0,0 km/h0,0 km/h2.4 Lux
08:42 PM10,2 ºC100 %965 hPa0,00 l/m2 0º N 0,0 km/h0,0 km/h2.4 Lux
08:37 PM10,3 ºC100 %965 hPa0,00 l/m2 157,5º SSE 0,0 km/h0,0 km/h2.3 Lux
08:32 PM10,2 ºC100 %965 hPa0,00 l/m2 45º NE 0,0 km/h0,0 km/h2.2 Lux
08:27 PM10,2 ºC100 %965 hPa0,00 l/m2 0º N 0,0 km/h0,0 km/h2.3 Lux
08:22 PM10,3 ºC100 %965 hPa0,00 l/m2 45º NE 0,0 km/h0,0 km/h2.3 Lux
08:17 PM10,4 ºC100 %965 hPa0,00 l/m2 45º NE 0,0 km/h0,0 km/h2.3 Lux
08:12 PM10,7 ºC100 %965 hPa0,00 l/m2 0º N 0,0 km/h0,0 km/h2.4 Lux
08:07 PM10,7 ºC100 %965 hPa0,00 l/m2 0º N 0,0 km/h0,3 km/h2.4 Lux
08:02 PM10,8 ºC100 %965 hPa0,00 l/m2 0º N 2,3 km/h6,9 km/h2.3 Lux
07:57 PM10,8 ºC100 %965 hPa0,00 l/m2 337,5º NNO 6,8 km/h9,5 km/h2.3 Lux
07:52 PM10,7 ºC100 %965 hPa0,00 l/m2 337,5º NNO 7,6 km/h11,0 km/h2.3 Lux
07:47 PM10,7 ºC100 %965 hPa0,00 l/m2 337,5º NNO 3,6 km/h8,1 km/h2.3 Lux
07:42 PM10,6 ºC100 %965 hPa0,00 l/m2 337,5º NNO 1,8 km/h6,7 km/h2.3 Lux
07:37 PM10,7 ºC100 %965 hPa0,00 l/m2 0º N 1,6 km/h5,8 km/h2.3 Lux
07:32 PM10,7 ºC100 %965 hPa0,00 l/m2 337,5º NNO 2,2 km/h6,7 km/h2.1 Lux
07:27 PM10,8 ºC100 %965 hPa0,00 l/m2 337,5º NNO 2,3 km/h8,1 km/h2.4 Lux
07:22 PM10,9 ºC100 %965 hPa0,00 l/m2 337,5º NNO 0,0 km/h0,3 km/h2.2 Lux
07:17 PM11,0 ºC98 %965 hPa0,00 l/m2 337,5º NNO 0,0 km/h0,3 km/h2.3 Lux
07:12 PM11,1 ºC96 %965 hPa0,00 l/m2 0º N 0,5 km/h2,9 km/h2.3 Lux
07:07 PM11,2 ºC95 %965 hPa0,00 l/m2 337,5º NNO 0,3 km/h1,7 km/h2.3 Lux
07:02 PM11,2 ºC95 %965 hPa0,00 l/m2 45º NE 0,8 km/h4,6 km/h2.3 Lux
06:57 PM11,3 ºC93 %965 hPa0,00 l/m2 67,5º ENE 1,9 km/h8,1 km/h2.3 Lux
06:52 PM11,3 ºC92 %965 hPa0,00 l/m2 225º SO 1,9 km/h6,7 km/h2.3 Lux
06:47 PM11,3 ºC92 %965 hPa0,00 l/m2 225º SO 2,7 km/h6,1 km/h2.1 Lux
06:42 PM11,4 ºC90 %965 hPa0,00 l/m2 0º N 4,2 km/h9,8 km/h2.3 Lux
06:37 PM11,5 ºC89 %965 hPa0,00 l/m2 0º N 3,0 km/h7,5 km/h2.4 Lux
06:32 PM11,6 ºC87 %965 hPa0,00 l/m2 67,5º ENE 3,5 km/h7,8 km/h2.5 Lux
06:27 PM11,6 ºC86 %965 hPa0,00 l/m2 135º SE 6,3 km/h24,0 km/h3.4 Lux
06:22 PM11,7 ºC85 %964 hPa0,00 l/m2 0º N 8,8 km/h17,9 km/h5 Lux
06:17 PM11,8 ºC82 %964 hPa0,00 l/m2 337,5º NNO 3,6 km/h8,7 km/h7.5 Lux
06:12 PM11,9 ºC81 %964 hPa0,00 l/m2 337,5º NNO 3,0 km/h8,4 km/h9 Lux
06:07 PM12,0 ºC81 %964 hPa0,00 l/m2 202,5º SSO 2,9 km/h7,2 km/h14.1 Lux
06:02 PM12,1 ºC79 %964 hPa0,00 l/m2 45º NE 3,2 km/h7,5 km/h28.8 Lux
05:57 PM12,3 ºC78 %964 hPa0,00 l/m2 90º E 7,8 km/h12,1 km/h53.2 Lux
05:52 PM12,3 ºC76 %964 hPa0,00 l/m2 315º NO 8,9 km/h21,7 km/h65.8 Lux
05:47 PM12,4 ºC75 %964 hPa0,00 l/m2 0º N 11,4 km/h22,2 km/h116.7 Lux
05:42 PM12,4 ºC74 %964 hPa0,00 l/m2 0º N 9,8 km/h17,6 km/h174.1 Lux
05:37 PM12,5 ºC73 %964 hPa0,00 l/m2 225º SO 12,3 km/h33,2 km/h656 Lux
05:32 PM12,8 ºC72 %964 hPa0,00 l/m2 45º NE 10,5 km/h35,0 km/h917.2 Lux
05:27 PM13,1 ºC70 %964 hPa0,00 l/m2 0º N 4,6 km/h13,6 km/h158.8 Lux
05:22 PM13,5 ºC68 %964 hPa0,00 l/m2 337,5º NNO 3,6 km/h9,8 km/h396.1 Lux
05:17 PM13,3 ºC68 %964 hPa0,00 l/m2 315º NO 3,7 km/h10,4 km/h414.6 Lux
05:12 PM13,8 ºC67 %964 hPa0,00 l/m2 0º N 2,0 km/h6,9 km/h466.6 Lux
05:07 PM13,7 ºC67 %964 hPa0,00 l/m2 202,5º SSO 4,2 km/h14,1 km/h455.5 Lux
05:02 PM13,4 ºC67 %964 hPa0,00 l/m2 67,5º ENE 6,9 km/h23,1 km/h434.3 Lux
04:57 PM13,1 ºC70 %964 hPa0,00 l/m2 157,5º SSE 10,0 km/h18,2 km/h542.6 Lux
04:52 PM12,9 ºC71 %964 hPa0,00 l/m2 67,5º ENE 9,3 km/h42,5 km/h478.2 Lux
04:47 PM13,1 ºC71 %964 hPa0,00 l/m2 67,5º ENE 4,9 km/h11,6 km/h119.8 Lux
04:42 PM13,4 ºC69 %964 hPa0,00 l/m2 315º NO 3,5 km/h10,4 km/h131.7 Lux
04:37 PM13,5 ºC68 %964 hPa0,00 l/m2 0º N 1,8 km/h7,8 km/h156.5 Lux
04:32 PM13,6 ºC68 %964 hPa0,00 l/m2 157,5º SSE 1,4 km/h5,2 km/h191.6 Lux
04:27 PM13,9 ºC67 %964 hPa0,00 l/m2 135º SE 2,4 km/h8,4 km/h620.3 Lux
04:22 PM13,8 ºC65 %964 hPa0,00 l/m2 67,5º ENE 1,9 km/h7,8 km/h656 Lux
04:17 PM13,8 ºC65 %964 hPa0,00 l/m2 247,5º OSO 4,0 km/h9,8 km/h674.9 Lux
04:12 PM13,8 ºC64 %964 hPa0,00 l/m2 67,5º ENE 2,1 km/h6,1 km/h715.3 Lux
04:07 PM13,9 ºC63 %964 hPa0,00 l/m2 45º NE 2,0 km/h10,4 km/h736.7 Lux
04:02 PM14,2 ºC63 %964 hPa0,00 l/m2 157,5º SSE 1,5 km/h5,2 km/h674.9 Lux
03:57 PM13,8 ºC63 %964 hPa0,00 l/m2 45º NE 2,0 km/h10,4 km/h807.1 Lux
03:52 PM14,6 ºC61 %964 hPa0,00 l/m2 45º NE 2,6 km/h9,3 km/h887.7 Lux
03:47 PM15,0 ºC59 %964 hPa0,00 l/m2 247,5º OSO 2,8 km/h9,3 km/h917.2 Lux
03:42 PM15,1 ºC60 %964 hPa0,00 l/m2 0º N 1,0 km/h5,5 km/h859.6 Lux
03:37 PM14,2 ºC62 %964 hPa0,00 l/m2 135º SE 2,4 km/h6,9 km/h1050.3 Lux
03:32 PM14,8 ºC59 %964 hPa0,00 l/m2 337,5º NNO 1,7 km/h4,6 km/h980.4 Lux
03:27 PM14,4 ºC60 %964 hPa0,00 l/m2 0º N 2,1 km/h11,6 km/h980.4 Lux
03:22 PM14,7 ºC62 %964 hPa0,00 l/m2 337,5º NNO 5,3 km/h11,6 km/h1050.3 Lux
03:17 PM13,8 ºC64 %964 hPa0,00 l/m2 45º NE 3,3 km/h10,4 km/h980.4 Lux
03:12 PM13,6 ºC64 %964 hPa0,00 l/m2 112.5º ESE 2,9 km/h9,8 km/h887.7 Lux
03:07 PM13,6 ºC66 %964 hPa0,00 l/m2 337,5º NNO 1,3 km/h3,5 km/h1050.3 Lux
03:02 PM14,2 ºC64 %964 hPa0,00 l/m2 45º NE 1,3 km/h4,0 km/h571.9 Lux
02:57 PM15,4 ºC58 %964 hPa0,00 l/m2 45º NE 1,5 km/h4,0 km/h917.2 Lux
02:52 PM14,7 ºC62 %964 hPa0,00 l/m2 337,5º NNO 2,4 km/h13,0 km/h1473.8 Lux
02:47 PM15,0 ºC62 %964 hPa0,00 l/m2 157,5º SSE 3,9 km/h9,3 km/h1473.8 Lux
02:42 PM14,7 ºC61 %964 hPa0,00 l/m2 0º N 11,8 km/h32,1 km/h1473.8 Lux
02:37 PM14,0 ºC65 %965 hPa0,00 l/m2 337,5º NNO 5,8 km/h14,4 km/h1535.5 Lux
02:32 PM14,1 ºC62 %965 hPa0,00 l/m2 112.5º ESE 3,0 km/h10,7 km/h1473.8 Lux
02:27 PM14,8 ºC60 %965 hPa0,08 l/m2 135º SE 3,4 km/h9,8 km/h340 Lux
02:22 PM14,0 ºC63 %965 hPa0,00 l/m2 45º NE 3,6 km/h17,1 km/h1535.5 Lux
02:17 PM14,7 ºC62 %965 hPa0,00 l/m2 225º SO 4,0 km/h11,6 km/h455.5 Lux
02:12 PM13,3 ºC67 %965 hPa0,00 l/m2 315º NO 3,1 km/h8,7 km/h1823.7 Lux
02:07 PM14,7 ºC62 %965 hPa0,00 l/m2 337,5º NNO 3,5 km/h7,8 km/h466.6 Lux
02:02 PM13,5 ºC63 %965 hPa0,00 l/m2 67,5º ENE 3,5 km/h8,1 km/h1998 Lux
01:57 PM14,5 ºC61 %965 hPa0,00 l/m2 337,5º NNO 4,6 km/h12,4 km/h1744.7 Lux
01:52 PM13,2 ºC67 %965 hPa0,00 l/m2 337,5º NNO 3,2 km/h8,1 km/h1823.7 Lux
01:47 PM12,9 ºC68 %965 hPa0,00 l/m2 135º SE 2,4 km/h6,1 km/h556.9 Lux
01:42 PM14,5 ºC63 %965 hPa0,00 l/m2 45º NE 3,2 km/h9,5 km/h248.3 Lux
01:37 PM14,7 ºC61 %965 hPa0,00 l/m2 45º NE 4,5 km/h10,7 km/h1823.7 Lux
01:32 PM12,5 ºC68 %966 hPa0,00 l/m2 0º N 1,6 km/h4,6 km/h1998 Lux
01:27 PM13,0 ºC70 %966 hPa0,00 l/m2 67,5º ENE 2,8 km/h7,5 km/h313 Lux
01:22 PM13,5 ºC66 %966 hPa0,00 l/m2 337,5º NNO 2,6 km/h6,9 km/h1908 Lux
01:17 PM14,2 ºC63 %966 hPa0,00 l/m2 67,5º ENE 2,1 km/h7,5 km/h1998 Lux
01:12 PM13,2 ºC69 %966 hPa0,00 l/m2 157,5º SSE 4,0 km/h11,0 km/h736.7 Lux
01:07 PM14,8 ºC64 %966 hPa0,00 l/m2 135º SE 2,4 km/h5,2 km/h277.9 Lux
01:02 PM14,1 ºC59 %966 hPa0,00 l/m2 45º NE 5,8 km/h11,8 km/h2094.2 Lux
12:57 PM14,0 ºC66 %966 hPa0,00 l/m2 67,5º ENE 3,2 km/h9,3 km/h1823.7 Lux
12:52 PM12,7 ºC77 %966 hPa0,00 l/m2 0º N 2,6 km/h6,1 km/h1744.7 Lux
12:47 PM15,1 ºC65 %966 hPa0,00 l/m2 337,5º NNO 5,8 km/h13,3 km/h294.7 Lux
12:42 PM14,4 ºC70 %966 hPa0,00 l/m2 337,5º NNO 0,8 km/h2,9 km/h502.5 Lux
12:37 PM12,9 ºC84 %966 hPa0,00 l/m2 0º N 0,8 km/h4,0 km/h2094.2 Lux
12:32 PM11,9 ºC92 %966 hPa0,00 l/m2 0º N 0,8 km/h5,8 km/h1473.8 Lux
12:27 PM12,8 ºC90 %966 hPa0,00 l/m2 45º NE 1,6 km/h5,5 km/h502.5 Lux
12:22 PM13,0 ºC93 %966 hPa0,00 l/m2 337,5º NNO 0,3 km/h1,2 km/h354.8 Lux
12:17 PM12,3 ºC97 %966 hPa0,00 l/m2 0º N 0,3 km/h1,7 km/h2094.2 Lux
12:12 PM12,7 ºC93 %966 hPa0,00 l/m2 247,5º OSO 0,0 km/h0,6 km/h542.6 Lux
12:07 PM13,2 ºC90 %966 hPa0,00 l/m2 67,5º ENE 0,4 km/h2,6 km/h414.6 Lux
12:02 PM13,7 ºC86 %966 hPa0,00 l/m2 45º NE 0,4 km/h2,3 km/h571.9 Lux
11:57 AM12,9 ºC92 %966 hPa0,00 l/m2 337,5º NNO 1,4 km/h7,5 km/h1998 Lux
11:52 AM11,6 ºC100 %966 hPa0,00 l/m2 0º N 10,8 km/h26,9 km/h1908 Lux
11:47 AM13,3 ºC91 %966 hPa0,00 l/m2 337,5º NNO 8,0 km/h24,6 km/h340 Lux
11:42 AM12,9 ºC97 %966 hPa0,00 l/m2 337,5º NNO 2,8 km/h16,5 km/h1744.7 Lux
11:37 AM12,8 ºC93 %966 hPa0,00 l/m2 337,5º NNO 0,6 km/h3,7 km/h1670.6 Lux
11:32 AM12,7 ºC97 %966 hPa0,00 l/m2 0º N 1,2 km/h4,6 km/h1535.5 Lux
11:27 AM11,0 ºC100 %966 hPa0,00 l/m2 45º NE 1,4 km/h3,7 km/h1213.3 Lux
11:22 AM11,4 ºC100 %966 hPa0,00 l/m2 0º N 1,3 km/h4,6 km/h1169.2 Lux
11:17 AM12,5 ºC100 %966 hPa0,00 l/m2 0º N 0,5 km/h1,7 km/h556.9 Lux
11:12 AM11,3 ºC100 %966 hPa0,00 l/m2 0º N 0,2 km/h0,9 km/h1169.2 Lux
11:07 AM10,8 ºC100 %967 hPa0,00 l/m2 0º N 0,0 km/h0,3 km/h1050.3 Lux
11:02 AM10,4 ºC100 %967 hPa0,00 l/m2 0º N 0,1 km/h0,6 km/h807.1 Lux
10:57 AM10,5 ºC100 %966 hPa0,00 l/m2 337,5º NNO 1,0 km/h4,6 km/h466.6 Lux
10:52 AM9,9 ºC100 %967 hPa0,00 l/m2 337,5º NNO 1,6 km/h7,5 km/h807.1 Lux
10:47 AM9,7 ºC100 %967 hPa0,00 l/m2 337,5º NNO 1,5 km/h9,3 km/h782.6 Lux
10:42 AM9,7 ºC100 %967 hPa0,00 l/m2 45º NE 1,9 km/h6,4 km/h571.9 Lux
10:37 AM9,6 ºC100 %967 hPa0,00 l/m2 45º NE 2,4 km/h9,8 km/h528.7 Lux
10:32 AM9,5 ºC100 %967 hPa0,00 l/m2 0º N 0,1 km/h0,6 km/h502.5 Lux
10:27 AM9,4 ºC100 %966 hPa0,00 l/m2 337,5º NNO 0,6 km/h6,1 km/h490.1 Lux
10:22 AM9,4 ºC100 %967 hPa0,00 l/m2 337,5º NNO 1,5 km/h6,4 km/h444.7 Lux
10:17 AM9,4 ºC100 %966 hPa0,00 l/m2 0º N 0,1 km/h0,6 km/h434.3 Lux
10:12 AM9,1 ºC100 %966 hPa0,00 l/m2 337,5º NNO 1,9 km/h5,2 km/h387.3 Lux
10:07 AM9,0 ºC100 %966 hPa0,00 l/m2 0º N 0,0 km/h0,0 km/h444.7 Lux
10:02 AM9,0 ºC100 %967 hPa0,00 l/m2 0º N 0,0 km/h0,0 km/h248.3 Lux
09:57 AM8,8 ºC100 %966 hPa0,00 l/m2 45º NE 0,1 km/h0,6 km/h208.2 Lux
09:52 AM8,8 ºC100 %966 hPa0,00 l/m2 337,5º NNO 0,0 km/h0,0 km/h300.6 Lux
09:47 AM8,8 ºC100 %966 hPa0,00 l/m2 0º N 0,0 km/h0,0 km/h277.9 Lux
09:42 AM8,4 ºC100 %966 hPa0,00 l/m2 0º N 0,0 km/h0,0 km/h300.6 Lux
09:37 AM8,4 ºC100 %966 hPa0,00 l/m2 0º N 0,0 km/h0,0 km/h262.5 Lux
09:32 AM8,3 ºC100 %966 hPa0,00 l/m2 0º N 0,0 km/h0,0 km/h156.5 Lux
09:27 AM8,2 ºC100 %966 hPa0,00 l/m2 0º N 0,0 km/h0,0 km/h227 Lux
09:22 AM8,2 ºC100 %966 hPa0,00 l/m2 0º N 0,0 km/h0,0 km/h135.4 Lux
09:17 AM8,0 ºC100 %966 hPa0,00 l/m2 0º N 0,0 km/h0,0 km/h109.4 Lux
09:12 AM8,1 ºC100 %966 hPa0,00 l/m2 0º N 0,0 km/h0,0 km/h106.7 Lux
09:07 AM8,0 ºC100 %966 hPa0,00 l/m2 0º N 0,0 km/h0,0 km/h128.2 Lux
09:02 AM7,9 ºC100 %966 hPa0,00 l/m2 0º N 0,0 km/h0,0 km/h93.3 Lux
08:57 AM8,0 ºC100 %966 hPa0,00 l/m2 0º N 0,0 km/h0,0 km/h99.1 Lux
08:52 AM8,0 ºC100 %966 hPa0,00 l/m2 0º N 0,0 km/h0,0 km/h93.3 Lux
08:47 AM7,9 ºC100 %966 hPa0,00 l/m2 0º N 0,0 km/h0,0 km/h99.1 Lux
08:42 AM7,9 ºC100 %966 hPa0,00 l/m2 0º N 0,0 km/h0,0 km/h73.7 Lux
08:37 AM7,9 ºC100 %966 hPa0,00 l/m2 0º N 0,0 km/h0,0 km/h89.1 Lux
08:32 AM7,9 ºC100 %966 hPa0,00 l/m2 45º NE 0,1 km/h0,3 km/h62 Lux
08:27 AM7,6 ºC100 %965 hPa0,00 l/m2 45º NE 0,0 km/h0,3 km/h49.9 Lux
08:22 AM7,6 ºC100 %965 hPa0,00 l/m2 45º NE 0,0 km/h0,0 km/h42.8 Lux
08:17 AM7,6 ºC100 %965 hPa0,00 l/m2 0º N 0,0 km/h0,0 km/h36.4 Lux
08:12 AM7,5 ºC100 %965 hPa0,00 l/m2 0º N 0,0 km/h0,0 km/h30.9 Lux
08:07 AM7,5 ºC100 %965 hPa0,00 l/m2 0º N 0,0 km/h0,0 km/h26.9 Lux
08:02 AM7,6 ºC100 %965 hPa0,00 l/m2 0º N 0,0 km/h0,0 km/h19.5 Lux
07:57 AM7,6 ºC100 %965 hPa0,00 l/m2 0º N 0,0 km/h0,0 km/h14.3 Lux
07:52 AM7,6 ºC100 %965 hPa0,00 l/m2 337,5º NNO 0,0 km/h0,0 km/h10.7 Lux
07:47 AM7,7 ºC100 %965 hPa0,00 l/m2 0º N 0,0 km/h0,0 km/h7.1 Lux
07:42 AM7,6 ºC100 %965 hPa0,00 l/m2 45º NE 0,0 km/h0,0 km/h4.6 Lux
07:37 AM7,5 ºC100 %965 hPa0,00 l/m2 0º N 0,0 km/h0,0 km/h3.3 Lux
07:32 AM7,5 ºC100 %965 hPa0,00 l/m2 0º N 0,0 km/h0,0 km/h2.7 Lux
07:27 AM7,6 ºC100 %965 hPa0,00 l/m2 0º N 0,0 km/h0,0 km/h2.2 Lux
07:22 AM7,8 ºC100 %965 hPa0,00 l/m2 0º N 0,0 km/h0,0 km/h2.1 Lux
07:17 AM7,7 ºC100 %965 hPa0,00 l/m2 0º N 0,0 km/h0,3 km/h2.2 Lux
07:12 AM7,7 ºC100 %965 hPa0,00 l/m2 337,5º NNO 0,0 km/h0,3 km/h2.2 Lux
07:07 AM7,8 ºC100 %965 hPa0,00 l/m2 0º N 0,0 km/h0,0 km/h2.2 Lux
07:02 AM7,9 ºC100 %965 hPa0,00 l/m2 337,5º NNO 0,0 km/h0,0 km/h2.3 Lux
06:57 AM7,9 ºC100 %965 hPa0,00 l/m2 337,5º NNO 0,0 km/h0,0 km/h2.1 Lux
06:52 AM8,0 ºC100 %965 hPa0,00 l/m2 0º N 0,0 km/h0,0 km/h2.3 Lux
06:47 AM8,1 ºC100 %965 hPa0,00 l/m2 0º N 0,0 km/h0,0 km/h2.3 Lux
06:42 AM8,1 ºC100 %965 hPa0,00 l/m2 0º N 0,0 km/h0,3 km/h2.4 Lux
06:37 AM8,0 ºC100 %965 hPa0,00 l/m2 0º N 0,1 km/h0,3 km/h2.4 Lux
06:32 AM8,0 ºC100 %965 hPa0,00 l/m2 0º N 0,0 km/h0,0 km/h2.3 Lux
06:27 AM8,0 ºC100 %965 hPa0,00 l/m2 0º N 0,0 km/h0,3 km/h2.4 Lux
06:22 AM8,0 ºC100 %965 hPa0,00 l/m2 0º N 0,0 km/h0,0 km/h2.2 Lux
06:17 AM7,9 ºC100 %964 hPa0,00 l/m2 0º N 0,0 km/h0,0 km/h2.2 Lux
06:12 AM7,8 ºC100 %964 hPa0,00 l/m2 45º NE 0,0 km/h0,0 km/h2.2 Lux
06:07 AM7,8 ºC100 %964 hPa0,00 l/m2 0º N 0,0 km/h0,0 km/h2.3 Lux
06:02 AM7,8 ºC100 %964 hPa0,00 l/m2 0º N 0,0 km/h0,0 km/h2.1 Lux
05:57 AM7,7 ºC100 %964 hPa0,00 l/m2 45º NE 0,0 km/h0,0 km/h2.2 Lux
05:52 AM7,9 ºC100 %964 hPa0,00 l/m2 45º NE 0,0 km/h0,0 km/h2.2 Lux
05:47 AM7,8 ºC100 %964 hPa0,00 l/m2 45º NE 0,0 km/h0,3 km/h2.1 Lux
05:42 AM7,9 ºC100 %964 hPa0,08 l/m2 45º NE 0,0 km/h0,0 km/h2.1 Lux
05:37 AM7,9 ºC100 %964 hPa0,00 l/m2 0º N 0,1 km/h0,3 km/h2.2 Lux
05:32 AM7,9 ºC100 %964 hPa0,00 l/m2 45º NE 0,0 km/h0,3 km/h2.1 Lux
05:27 AM7,8 ºC100 %964 hPa0,00 l/m2 0º N 0,0 km/h0,0 km/h2.3 Lux
05:22 AM8,0 ºC100 %964 hPa0,00 l/m2 0º N 0,0 km/h0,0 km/h2.3 Lux
05:17 AM8,0 ºC100 %964 hPa0,00 l/m2 45º NE 0,0 km/h0,0 km/h2.2 Lux
05:12 AM8,1 ºC100 %964 hPa0,00 l/m2 0º N 0,0 km/h0,3 km/h2.2 Lux
05:07 AM8,1 ºC100 %964 hPa0,00 l/m2 0º N 0,2 km/h1,2 km/h2.4 Lux
05:02 AM8,2 ºC100 %964 hPa0,00 l/m2 0º N 0,1 km/h0,3 km/h2.2 Lux
04:57 AM8,4 ºC100 %964 hPa0,00 l/m2 67,5º ENE 0,1 km/h0,3 km/h2.2 Lux
04:52 AM8,5 ºC100 %964 hPa0,00 l/m2 45º NE 3,0 km/h8,1 km/h2.2 Lux
04:47 AM8,5 ºC100 %964 hPa0,00 l/m2 0º N 5,7 km/h11,3 km/h2.3 Lux
04:42 AM8,5 ºC100 %964 hPa0,00 l/m2 45º NE 8,6 km/h13,9 km/h2.3 Lux
04:37 AM8,5 ºC100 %964 hPa0,00 l/m2 337,5º NNO 11,4 km/h22,5 km/h2.2 Lux
04:32 AM8,5 ºC100 %964 hPa0,00 l/m2 0º N 8,1 km/h15,6 km/h2.4 Lux
04:27 AM8,6 ºC100 %964 hPa0,00 l/m2 337,5º NNO 4,5 km/h9,5 km/h2.2 Lux
04:22 AM8,6 ºC100 %964 hPa0,00 l/m2 337,5º NNO 7,8 km/h14,1 km/h2.2 Lux
04:17 AM8,6 ºC100 %964 hPa0,00 l/m2 337,5º NNO 8,7 km/h12,4 km/h2.2 Lux
04:12 AM8,5 ºC100 %964 hPa0,00 l/m2 315º NO 7,9 km/h12,7 km/h2.3 Lux
04:07 AM8,4 ºC100 %963 hPa0,00 l/m2 337,5º NNO 6,0 km/h11,3 km/h2.2 Lux
04:02 AM8,5 ºC100 %963 hPa0,00 l/m2 0º N 0,2 km/h0,9 km/h2.3 Lux
03:57 AM8,7 ºC100 %963 hPa0,00 l/m2 0º N 0,0 km/h0,3 km/h2.3 Lux
03:52 AM8,8 ºC100 %963 hPa0,00 l/m2 0º N 0,0 km/h0,3 km/h2.3 Lux
03:47 AM8,9 ºC100 %963 hPa0,00 l/m2 0º N 0,4 km/h4,3 km/h2.1 Lux
03:42 AM9,0 ºC100 %963 hPa0,00 l/m2 0º N 4,8 km/h10,4 km/h2.3 Lux
03:37 AM9,0 ºC100 %963 hPa0,00 l/m2 337,5º NNO 8,6 km/h13,9 km/h2.3 Lux
03:32 AM9,1 ºC100 %963 hPa0,00 l/m2 337,5º NNO 6,4 km/h9,5 km/h2.4 Lux
03:27 AM9,2 ºC100 %963 hPa0,00 l/m2 337,5º NNO 9,9 km/h19,9 km/h2.2 Lux
03:22 AM9,2 ºC100 %963 hPa0,00 l/m2 337,5º NNO 9,1 km/h20,5 km/h2.1 Lux
03:17 AM9,3 ºC100 %963 hPa0,00 l/m2 0º N 9,2 km/h18,5 km/h2.3 Lux
03:12 AM9,3 ºC100 %963 hPa0,00 l/m2 45º NE 13,5 km/h30,3 km/h2.4 Lux
03:07 AM9,4 ºC100 %963 hPa0,00 l/m2 337,5º NNO 15,4 km/h29,5 km/h2.1 Lux
03:02 AM9,3 ºC100 %963 hPa0,00 l/m2 45º NE 12,6 km/h23,4 km/h2.2 Lux
02:57 AM9,3 ºC100 %963 hPa0,00 l/m2 337,5º NNO 14,7 km/h25,7 km/h2.3 Lux
02:52 AM9,3 ºC100 %963 hPa0,00 l/m2 337,5º NNO 10,7 km/h17,1 km/h2.2 Lux
02:47 AM9,3 ºC100 %963 hPa0,00 l/m2 0º N 10,5 km/h24,8 km/h2.2 Lux
02:42 AM9,3 ºC100 %963 hPa0,00 l/m2 337,5º NNO 4,6 km/h11,8 km/h2.2 Lux
02:37 AM9,4 ºC100 %963 hPa0,00 l/m2 0º N 0,5 km/h4,6 km/h2.2 Lux
02:32 AM9,6 ºC100 %963 hPa0,00 l/m2 0º N 0,0 km/h0,3 km/h2.1 Lux
02:27 AM9,7 ºC100 %963 hPa0,00 l/m2 337,5º NNO 0,5 km/h2,9 km/h2.2 Lux
02:22 AM9,9 ºC100 %963 hPa0,00 l/m2 135º SE 0,3 km/h0,9 km/h2.2 Lux
02:17 AM10,1 ºC100 %963 hPa0,00 l/m2 0º N 3,2 km/h15,0 km/h2.3 Lux
02:12 AM10,2 ºC100 %963 hPa0,00 l/m2 337,5º NNO 4,3 km/h7,8 km/h2.1 Lux
02:07 AM10,2 ºC100 %963 hPa0,00 l/m2 337,5º NNO 3,0 km/h7,8 km/h2.1 Lux
02:02 AM10,3 ºC100 %963 hPa0,00 l/m2 337,5º NNO 2,1 km/h10,1 km/h2.2 Lux
01:57 AM10,4 ºC100 %963 hPa0,00 l/m2 0º N 0,0 km/h0,3 km/h2.1 Lux
01:52 AM10,5 ºC100 %963 hPa0,00 l/m2 0º N 1,9 km/h6,9 km/h2.4 Lux
01:47 AM10,5 ºC100 %963 hPa0,00 l/m2 0º N 2,5 km/h10,7 km/h2.1 Lux
01:42 AM10,6 ºC100 %963 hPa0,00 l/m2 0º N 2,8 km/h6,7 km/h2.3 Lux
01:37 AM10,6 ºC100 %963 hPa0,00 l/m2 0º N 5,8 km/h11,8 km/h2.1 Lux
01:32 AM10,6 ºC100 %963 hPa0,00 l/m2 0º N 6,8 km/h11,0 km/h2.3 Lux
01:27 AM10,7 ºC100 %963 hPa0,00 l/m2 0º N 8,3 km/h22,0 km/h2.1 Lux
01:22 AM10,7 ºC100 %963 hPa0,00 l/m2 337,5º NNO 7,3 km/h12,4 km/h2.3 Lux
01:17 AM10,8 ºC100 %963 hPa0,00 l/m2 337,5º NNO 6,2 km/h17,6 km/h2.3 Lux
01:12 AM10,9 ºC100 %963 hPa0,00 l/m2 45º NE 8,4 km/h17,6 km/h2.1 Lux
01:07 AM11,0 ºC100 %963 hPa0,00 l/m2 45º NE 9,8 km/h22,8 km/h2.1 Lux
01:02 AM11,1 ºC100 %963 hPa0,00 l/m2 337,5º NNO 15,3 km/h35,6 km/h2.2 Lux
12:57 AM11,2 ºC100 %963 hPa0,00 l/m2 337,5º NNO 15,4 km/h37,3 km/h2.4 Lux
12:52 AM11,3 ºC100 %963 hPa0,00 l/m2 337,5º NNO 13,4 km/h32,1 km/h2.3 Lux
12:47 AM11,5 ºC100 %963 hPa0,00 l/m2 0º N 8,4 km/h19,9 km/h2.2 Lux
12:42 AM11,6 ºC100 %963 hPa0,00 l/m2 337,5º NNO 22,3 km/h46,8 km/h2.2 Lux
12:37 AM11,8 ºC100 %963 hPa0,00 l/m2 337,5º NNO 15,6 km/h32,1 km/h2.3 Lux
12:32 AM11,9 ºC100 %963 hPa0,00 l/m2 0º N 18,9 km/h45,1 km/h2.3 Lux
12:27 AM11,9 ºC100 %963 hPa0,00 l/m2 337,5º NNO 13,5 km/h30,1 km/h2.2 Lux
12:22 AM12,0 ºC100 %963 hPa0,00 l/m2 0º N 6,5 km/h28,3 km/h2.1 Lux
12:17 AM12,0 ºC100 %963 hPa0,00 l/m2 315º NO 12,3 km/h43,1 km/h2.2 Lux
12:12 AM12,1 ºC100 %963 hPa0,00 l/m2 337,5º NNO 9,3 km/h20,2 km/h2.1 Lux
12:07 AM12,1 ºC100 %963 hPa0,00 l/m2 45º NE 17,6 km/h35,6 km/h2.1 Lux
12:02 AM12,2 ºC100 %963 hPa0,00 l/m2 337,5º NNO 19,2 km/h44,2 km/h2.1 Lux
WeatherStation © 2018